Time;durP1;ratioP1;P1;durP2;ratioP2;P2;SDS_P1;SDS_P2;PMS_P1;PMS_P2;Temp;Humidity;BMP_temperature;BMP_pressure;BME280_temperature;BME280_humidity;BME280_pressure;Samples;Min_cycle;Max_cycle;Signal;HPM_P1;HPM_P2
2021/04/06 00:00:37;;;;;;;2.97;0.80;;;18.70;32.80;;;;;;5076281;28;20136;-72
2021/04/06 00:03:05;;;;;;;2.67;0.60;;;18.70;32.80;;;;;;5076145;28;20032;-72
2021/04/06 00:05:31;;;;;;;2.75;0.70;;;18.70;32.80;;;;;;5076094;28;20029;-73
2021/04/06 00:07:59;;;;;;;2.35;0.70;;;18.70;32.80;;;;;;5075223;28;20382;-73
2021/04/06 00:10:37;;;;;;;2.40;0.88;;;18.70;32.80;;;;;;5075269;28;20484;-73
2021/04/06 00:13:04;;;;;;;1.77;0.43;;;18.70;32.80;;;;;;5075364;28;20025;-73
2021/04/06 00:15:32;;;;;;;2.90;0.80;;;18.70;32.80;;;;;;5075214;28;20032;-73
2021/04/06 00:18:01;;;;;;;2.70;0.85;;;18.70;32.80;;;;;;5075285;28;20449;-73
2021/04/06 00:20:30;;;;;;;2.78;0.75;;;18.70;32.80;;;;;;5075096;28;20033;-72
2021/04/06 00:22:57;;;;;;;2.55;0.70;;;18.70;32.80;;;;;;5075198;28;20040;-74
2021/04/06 00:25:28;;;;;;;2.45;0.73;;;18.70;32.80;;;;;;5075366;28;20108;-73
2021/04/06 00:27:55;;;;;;;3.33;0.70;;;18.70;32.80;;;;;;5080250;28;20487;-73
2021/04/06 00:30:29;;;;;;;3.03;0.70;;;18.70;32.90;;;;;;5076831;28;20493;-73
2021/04/06 00:33:04;;;;;;;2.13;0.75;;;18.70;32.90;;;;;;5075216;28;20028;-74
2021/04/06 00:35:33;;;;;;;3.28;1.08;;;18.70;32.80;;;;;;5075784;28;20024;-73
2021/04/06 00:38:02;;;;;;;3.53;1.02;;;18.70;32.80;;;;;;5078982;28;20089;-73
2021/04/06 00:40:27;;;;;;;6.03;1.10;;;18.70;32.90;;;;;;5075069;28;20032;-73
2021/04/06 00:43:02;;;;;;;2.55;0.60;;;18.70;32.90;;;;;;5074840;28;20021;-73
2021/04/06 00:45:30;;;;;;;3.15;0.82;;;18.70;32.80;;;;;;5075632;28;20384;-73
2021/04/06 00:48:01;;;;;;;2.60;0.70;;;18.70;32.90;;;;;;5074571;28;20028;-73
2021/04/06 00:50:32;;;;;;;2.97;0.63;;;18.70;32.90;;;;;;5074535;28;20025;-73
2021/04/06 00:52:58;;;;;;;2.20;0.70;;;18.60;32.90;;;;;;5074882;28;20056;-73
2021/04/06 00:55:23;;;;;;;2.28;0.60;;;18.60;32.90;;;;;;5074452;28;20353;-73
2021/04/06 00:57:49;;;;;;;3.00;0.80;;;18.60;32.90;;;;;;5074577;28;20031;-72
2021/04/06 01:00:24;;;;;;;3.60;0.90;;;18.60;32.90;;;;;;5074486;28;20016;-73
2021/04/06 01:03:07;;;;;;;3.45;0.80;;;18.60;32.80;;;;;;5073047;28;20025;-73
2021/04/06 01:05:35;;;;;;;3.30;0.80;;;18.60;32.80;;;;;;5074321;28;20024;-73
2021/04/06 01:08:03;;;;;;;1.83;0.73;;;18.60;32.90;;;;;;5074146;28;20032;-73
2021/04/06 01:10:31;;;;;;;2.97;0.90;;;18.60;32.80;;;;;;5072952;28;20032;-73
2021/04/06 01:12:58;;;;;;;4.40;0.90;;;18.60;32.90;;;;;;5074111;28;20112;-72
2021/04/06 01:15:25;;;;;;;3.05;0.82;;;18.60;32.90;;;;;;5073806;28;20020;-73
2021/04/06 01:17:51;;;;;;;4.65;0.90;;;18.70;32.90;;;;;;5074159;28;20082;-73
2021/04/06 01:20:19;;;;;;;2.78;0.70;;;18.60;32.90;;;;;;5074005;28;20028;-73
2021/04/06 01:22:52;;;;;;;3.90;0.90;;;18.60;32.90;;;;;;5073707;28;20029;-73
2021/04/06 01:25:19;;;;;;;3.30;0.70;;;18.60;32.90;;;;;;5073792;28;20051;-73
2021/04/06 01:27:45;;;;;;;2.92;0.80;;;18.60;32.90;;;;;;5073939;28;20255;-73
2021/04/06 01:30:12;;;;;;;1.85;0.60;;;18.60;32.90;;;;;;5073775;28;20032;-73
2021/04/06 01:32:38;;;;;;;2.58;0.77;;;18.60;32.90;;;;;;5073794;28;20464;-73
2021/04/06 01:35:09;;;;;;;3.17;0.70;;;18.60;32.90;;;;;;5073682;28;20031;-73
2021/04/06 01:37:34;;;;;;;2.47;0.55;;;18.60;32.90;;;;;;5073744;28;20082;-73
2021/04/06 01:40:02;;;;;;;1.20;0.50;;;18.60;32.90;;;;;;5073694;28;20025;-73
2021/04/06 01:42:31;;;;;;;3.25;1.02;;;18.60;32.90;;;;;;5074060;28;20094;-73
2021/04/06 01:44:59;;;;;;;3.25;0.80;;;18.60;33.00;;;;;;5074210;28;20032;-73
2021/04/06 01:47:27;;;;;;;4.20;0.68;;;18.60;32.90;;;;;;5073754;28;20364;-73
2021/04/06 01:49:53;;;;;;;1.23;0.57;;;18.60;32.90;;;;;;5073436;28;20024;-73
2021/04/06 01:52:20;;;;;;;3.63;0.90;;;18.60;32.90;;;;;;5073522;28;20037;-72
2021/04/06 01:54:57;;;;;;;3.03;0.70;;;18.60;32.90;;;;;;5074129;28;20034;-73
2021/04/06 01:57:30;;;;;;;2.40;0.63;;;18.60;32.90;;;;;;5074070;28;20052;-72
2021/04/06 02:00:10;;;;;;;2.13;0.70;;;18.60;32.90;;;;;;5073533;28;20387;-72
2021/04/06 02:02:38;;;;;;;2.05;0.45;;;18.60;32.90;;;;;;5073225;28;20029;-73
2021/04/06 02:05:07;;;;;;;2.38;0.73;;;18.60;32.90;;;;;;5073436;28;20037;-73
2021/04/06 02:07:37;;;;;;;2.92;0.68;;;18.60;32.90;;;;;;5073837;28;20029;-73
2021/04/06 02:10:07;;;;;;;3.40;0.80;;;18.50;33.00;;;;;;5073597;28;20116;-73
2021/04/06 02:12:45;;;;;;;2.53;0.68;;;18.50;32.90;;;;;;5073376;28;20021;-73
2021/04/06 02:15:12;;;;;;;3.42;0.88;;;18.50;33.00;;;;;;5073318;28;20044;-73
2021/04/06 02:17:52;;;;;;;2.75;0.57;;;18.50;33.00;;;;;;5073354;28;20103;-73
2021/04/06 02:20:19;;;;;;;2.75;0.90;;;18.50;32.90;;;;;;5073280;28;20024;-73
2021/04/06 02:23:02;;;;;;;3.28;0.90;;;18.50;32.90;;;;;;5073260;28;20056;-73
2021/04/06 02:25:29;;;;;;;2.08;0.60;;;18.60;33.00;;;;;;5073374;28;20063;-73
2021/04/06 02:27:55;;;;;;;3.45;0.95;;;18.50;33.00;;;;;;5073847;28;20025;-73
2021/04/06 02:30:31;;;;;;;3.95;0.80;;;18.50;33.00;;;;;;5077348;28;20044;-73
2021/04/06 02:32:58;;;;;;;2.60;0.60;;;18.50;33.00;;;;;;5077570;28;20098;-73
2021/04/06 02:35:25;;;;;;;1.92;0.52;;;18.50;33.00;;;;;;5076948;28;20040;-73
2021/04/06 02:37:51;;;;;;;2.55;0.75;;;18.50;33.00;;;;;;5075984;28;20024;-73
2021/04/06 02:40:20;;;;;;;4.45;0.90;;;18.50;33.00;;;;;;5081722;28;20058;-73
2021/04/06 02:42:48;;;;;;;3.28;0.80;;;18.50;33.00;;;;;;5077697;28;20032;-72
2021/04/06 02:45:18;;;;;;;2.92;0.90;;;18.50;33.00;;;;;;5077501;28;20035;-73
2021/04/06 02:47:54;;;;;;;3.50;0.90;;;18.50;33.00;;;;;;5077009;28;20035;-73
2021/04/06 02:50:24;;;;;;;2.45;0.60;;;18.50;33.00;;;;;;5076833;28;20430;-73
2021/04/06 02:52:51;;;;;;;1.63;0.55;;;18.50;33.00;;;;;;5077025;28;20086;-73
2021/04/06 02:55:17;;;;;;;2.42;0.63;;;18.50;33.10;;;;;;5076857;28;20032;-73
2021/04/06 02:57:45;;;;;;;2.70;0.70;;;18.50;33.10;;;;;;5076696;28;20387;-73
2021/04/06 03:00:31;;;;;;;2.15;0.60;;;18.50;33.10;;;;;;5076622;28;20108;-72
2021/04/06 03:02:59;;;;;;;3.67;0.80;;;18.50;33.10;;;;;;5076816;28;20017;-73
2021/04/06 03:05:32;;;;;;;1.50;0.55;;;18.50;33.10;;;;;;5075203;28;20033;-73
2021/04/06 03:07:59;;;;;;;3.50;0.70;;;18.50;33.10;;;;;;5076507;28;20093;-73
2021/04/06 03:10:25;;;;;;;2.83;0.75;;;18.50;33.10;;;;;;5076714;28;20127;-73
2021/04/06 03:12:51;;;;;;;4.18;0.95;;;18.50;33.10;;;;;;5076483;28;20065;-73
2021/04/06 03:15:23;;;;;;;3.50;1.10;;;18.50;33.10;;;;;;5076532;28;20034;-73
2021/04/06 03:17:51;;;;;;;2.92;0.65;;;18.50;33.10;;;;;;5076614;28;20058;-73
2021/04/06 03:20:18;;;;;;;4.60;1.00;;;18.50;33.10;;;;;;5076209;28;20028;-73
2021/04/06 03:22:46;;;;;;;3.67;0.90;;;18.50;33.10;;;;;;5075139;28;20502;-73
2021/04/06 03:25:13;;;;;;;2.58;0.77;;;18.50;33.10;;;;;;5075239;28;20035;-72
2021/04/06 03:27:43;;;;;;;3.20;0.82;;;18.50;33.10;;;;;;5074966;28;20017;-73
2021/04/06 03:30:09;;;;;;;2.50;0.55;;;18.50;33.10;;;;;;5074735;28;20480;-73
2021/04/06 03:32:34;;;;;;;2.42;0.70;;;18.50;33.10;;;;;;5074838;28;20063;-72
2021/04/06 03:35:00;;;;;;;2.95;0.77;;;18.50;33.10;;;;;;5075083;28;20024;-72
2021/04/06 03:37:28;;;;;;;2.50;0.65;;;18.40;33.10;;;;;;5075044;28;20020;-72
2021/04/06 03:39:54;;;;;;;3.75;0.98;;;18.50;33.10;;;;;;5074616;28;20036;-72
2021/04/06 03:42:24;;;;;;;3.35;0.70;;;18.40;33.10;;;;;;5074803;28;20033;-72
2021/04/06 03:44:50;;;;;;;2.38;0.75;;;18.50;33.20;;;;;;5074861;28;20021;-72
2021/04/06 03:47:16;;;;;;;3.63;0.63;;;18.50;33.10;;;;;;5074842;28;20134;-72
2021/04/06 03:49:48;;;;;;;2.10;0.63;;;18.40;33.20;;;;;;5074789;28;20426;-74
2021/04/06 03:52:15;;;;;;;2.65;0.80;;;18.40;33.10;;;;;;5074758;28;20483;-74
2021/04/06 03:54:44;;;;;;;1.40;0.50;;;18.40;33.20;;;;;;5074387;28;20029;-74
2021/04/06 03:57:21;;;;;;;1.75;0.52;;;18.40;33.20;;;;;;5074885;28;20388;-74
2021/04/06 03:59:48;;;;;;;3.08;0.75;;;18.40;33.20;;;;;;5074307;28;20024;-74
2021/04/06 04:02:13;;;;;;;3.83;0.93;;;18.40;33.20;;;;;;5074529;28;20025;-74
2021/04/06 04:04:39;;;;;;;2.08;0.60;;;18.40;33.20;;;;;;5074556;28;20028;-74
2021/04/06 04:07:07;;;;;;;3.58;0.80;;;18.40;33.20;;;;;;5074507;28;20400;-74
2021/04/06 04:09:33;;;;;;;2.28;0.80;;;18.40;33.10;;;;;;5074415;28;20033;-72
2021/04/06 04:11:58;;;;;;;2.90;0.68;;;18.40;33.10;;;;;;5074358;28;20036;-73
2021/04/06 04:14:24;;;;;;;2.20;0.50;;;18.40;33.10;;;;;;5074252;28;20099;-72
2021/04/06 04:16:49;;;;;;;3.33;1.10;;;18.50;33.10;;;;;;5074303;28;20025;-73
2021/04/06 04:19:15;;;;;;;1.40;0.68;;;18.50;33.00;;;;;;5074356;28;20032;-73
2021/04/06 04:21:40;;;;;;;4.22;0.95;;;18.50;33.00;;;;;;5066157;28;543048;-73
2021/04/06 04:24:06;;;;;;;3.17;1.00;;;18.50;33.00;;;;;;5090820;28;20032;-73
2021/04/06 04:26:32;;;;;;;1.90;0.70;;;18.50;32.90;;;;;;5091252;28;20044;-73
2021/04/06 04:28:57;;;;;;;2.63;0.68;;;18.60;32.90;;;;;;5088917;28;20039;-73
2021/04/06 04:31:23;;;;;;;3.75;1.15;;;18.60;32.90;;;;;;5076289;28;20032;-73
2021/04/06 04:33:48;;;;;;;3.50;0.85;;;18.60;32.90;;;;;;5074009;28;20028;-74
2021/04/06 04:36:14;;;;;;;2.63;0.70;;;18.60;32.80;;;;;;5075308;28;20036;-72
2021/04/06 04:38:39;;;;;;;3.67;0.85;;;18.70;32.80;;;;;;5079487;28;20050;-72
2021/04/06 04:41:05;;;;;;;4.40;1.00;;;18.70;32.80;;;;;;5078129;28;20039;-72
2021/04/06 04:43:30;;;;;;;3.55;0.95;;;18.70;32.80;;;;;;5073780;28;20472;-72
2021/04/06 04:45:56;;;;;;;4.15;1.27;;;18.70;32.80;;;;;;5075264;28;20025;-73
2021/04/06 04:48:21;;;;;;;3.08;0.95;;;18.70;32.80;;;;;;5074567;28;20028;-72
2021/04/06 04:50:47;;;;;;;3.70;0.80;;;18.70;32.80;;;;;;5073866;28;20085;-72
2021/04/06 04:53:13;;;;;;;3.00;0.85;;;18.80;32.80;;;;;;5074459;28;20020;-73
2021/04/06 04:55:39;;;;;;;3.60;0.88;;;18.80;32.70;;;;;;5075011;28;20107;-73
2021/04/06 04:58:04;;;;;;;3.60;0.93;;;18.80;32.70;;;;;;5074971;28;20056;-72
2021/04/06 05:00:30;;;;;;;3.67;1.00;;;18.80;32.70;;;;;;5074651;28;20024;-73
2021/04/06 05:02:55;;;;;;;3.55;0.93;;;18.80;32.70;;;;;;5074794;28;20029;-73
2021/04/06 05:05:21;;;;;;;3.22;0.80;;;18.80;32.70;;;;;;5074826;28;20035;-73
2021/04/06 05:07:47;;;;;;;3.15;0.88;;;18.80;32.70;;;;;;5080771;28;20054;-73
2021/04/06 05:10:14;;;;;;;3.63;0.77;;;18.90;32.70;;;;;;5074834;28;20540;-73
2021/04/06 05:12:40;;;;;;;2.60;0.70;;;18.90;32.70;;;;;;5074352;28;20033;-73
2021/04/06 05:15:09;;;;;;;3.55;0.90;;;18.90;32.70;;;;;;5074579;28;20024;-73
2021/04/06 05:17:35;;;;;;;3.78;0.80;;;18.90;32.70;;;;;;5074700;28;20033;-73
2021/04/06 05:20:01;;;;;;;5.38;0.90;;;18.90;32.70;;;;;;5074386;28;20028;-73
2021/04/06 05:22:27;;;;;;;2.85;0.75;;;19.00;32.70;;;;;;5074125;28;20040;-73
2021/04/06 05:24:53;;;;;;;2.90;0.70;;;18.90;32.70;;;;;;5074241;28;20495;-73
2021/04/06 05:27:18;;;;;;;2.95;0.70;;;19.00;32.70;;;;;;5074093;28;20028;-73
2021/04/06 05:29:44;;;;;;;2.72;0.80;;;19.00;32.70;;;;;;5074211;28;20035;-73
2021/04/06 05:32:10;;;;;;;4.88;0.90;;;19.00;32.70;;;;;;5074031;28;20036;-73
2021/04/06 05:34:35;;;;;;;2.15;0.73;;;19.00;32.70;;;;;;5074056;28;20053;-73
2021/04/06 05:37:01;;;;;;;3.00;0.50;;;19.00;32.60;;;;;;5072517;28;20020;-73
2021/04/06 05:39:27;;;;;;;2.72;0.77;;;19.00;32.60;;;;;;5073749;28;20504;-73
2021/04/06 05:41:52;;;;;;;3.08;0.93;;;19.00;32.60;;;;;;5073876;28;20112;-73
2021/04/06 05:44:18;;;;;;;4.20;0.90;;;19.00;32.70;;;;;;5073730;28;20035;-73
2021/04/06 05:46:49;;;;;;;3.00;0.82;;;19.00;32.70;;;;;;5073925;28;20080;-73
2021/04/06 05:49:26;;;;;;;3.65;0.90;;;19.10;32.60;;;;;;5073323;28;20441;-73
2021/04/06 05:51:53;;;;;;;3.40;0.63;;;19.10;32.70;;;;;;5073830;28;20028;-72
2021/04/06 05:54:20;;;;;;;2.83;0.85;;;19.10;32.70;;;;;;5073266;28;20210;-73
2021/04/06 05:56:45;;;;;;;3.25;0.77;;;19.10;32.70;;;;;;5073526;28;20128;-73
2021/04/06 05:59:11;;;;;;;3.60;0.88;;;19.10;32.70;;;;;;5073384;28;20032;-73
2021/04/06 06:01:42;;;;;;;3.78;0.80;;;19.10;32.60;;;;;;5073566;28;20031;-73
2021/04/06 06:04:10;;;;;;;3.72;0.55;;;19.10;32.60;;;;;;5073459;28;20103;-73
2021/04/06 06:06:36;;;;;;;3.25;1.00;;;19.10;32.60;;;;;;5073186;28;20421;-73
2021/04/06 06:09:04;;;;;;;3.67;0.82;;;19.10;32.60;;;;;;5073352;28;20024;-73
2021/04/06 06:11:30;;;;;;;2.72;0.82;;;19.20;32.50;;;;;;5073519;28;20041;-73
2021/04/06 06:13:56;;;;;;;4.50;1.10;;;19.10;32.60;;;;;;5073421;28;20031;-73
2021/04/06 06:16:26;;;;;;;3.10;0.80;;;19.20;32.50;;;;;;5073054;28;20111;-73
2021/04/06 06:18:53;;;;;;;3.40;0.90;;;19.20;32.60;;;;;;5073195;28;20045;-73
2021/04/06 06:21:18;;;;;;;5.20;1.10;;;19.20;32.60;;;;;;5073176;28;20060;-73
2021/04/06 06:23:44;;;;;;;2.75;0.70;;;19.20;32.60;;;;;;5073330;28;20017;-73
2021/04/06 06:26:09;;;;;;;2.60;0.80;;;19.20;32.60;;;;;;5073224;28;20028;-73
2021/04/06 06:28:36;;;;;;;3.80;0.95;;;19.30;32.60;;;;;;5073422;28;20052;-72
2021/04/06 06:31:02;;;;;;;2.35;0.60;;;19.20;32.60;;;;;;5073157;28;20028;-72
2021/04/06 06:33:30;;;;;;;3.53;1.17;;;19.30;32.60;;;;;;5073137;28;20077;-72
2021/04/06 06:36:00;;;;;;;2.28;0.73;;;19.20;32.60;;;;;;5073090;28;20032;-73
2021/04/06 06:38:36;;;;;;;2.17;0.60;;;19.20;32.70;;;;;;5073002;28;20031;-73
2021/04/06 06:41:14;;;;;;;3.67;0.90;;;19.20;32.70;;;;;;5071810;28;20029;-73
2021/04/06 06:43:56;;;;;;;3.97;0.70;;;19.20;32.70;;;;;;5073039;28;20025;-73
2021/04/06 06:46:23;;;;;;;9.38;1.00;;;19.20;32.70;;;;;;5072783;28;20493;-73
2021/04/06 06:49:03;;;;;;;2.15;0.70;;;19.30;32.70;;;;;;5071680;28;20033;-74
2021/04/06 06:51:32;;;;;;;4.65;0.90;;;19.30;32.60;;;;;;5072685;28;20025;-74
2021/04/06 06:53:58;;;;;;;2.83;0.77;;;19.30;32.60;;;;;;5073089;28;20024;-74
2021/04/06 06:56:37;;;;;;;2.40;0.75;;;19.30;32.60;;;;;;5072843;28;20036;-74
2021/04/06 06:59:04;;;;;;;2.95;0.80;;;19.30;32.60;;;;;;5073017;28;20020;-74
2021/04/06 07:01:32;;;;;;;3.08;0.80;;;19.30;32.60;;;;;;5072596;28;20028;-73
2021/04/06 07:04:04;;;;;;;2.60;0.80;;;19.30;32.60;;;;;;5072860;28;20468;-74
2021/04/06 07:06:29;;;;;;;1.75;0.60;;;19.30;32.60;;;;;;5072847;28;20476;-73
2021/04/06 07:08:55;;;;;;;4.63;1.20;;;19.40;32.60;;;;;;5072785;28;20020;-73
2021/04/06 07:11:22;;;;;;;2.67;0.50;;;19.30;32.50;;;;;;5073100;28;20119;-73
2021/04/06 07:13:50;;;;;;;2.67;0.80;;;19.40;32.50;;;;;;5073272;28;20422;-73
2021/04/06 07:16:18;;;;;;;3.38;0.88;;;19.40;32.50;;;;;;5076136;28;20029;-73
2021/04/06 07:18:44;;;;;;;2.95;0.90;;;19.40;32.50;;;;;;5076587;28;20061;-73
2021/04/06 07:21:11;;;;;;;2.33;0.63;;;19.30;32.50;;;;;;5076006;28;20076;-74
2021/04/06 07:23:43;;;;;;;2.85;0.63;;;19.40;32.60;;;;;;5076247;28;20100;-72
2021/04/06 07:26:14;;;;;;;3.78;0.82;;;19.40;32.60;;;;;;5076385;28;20039;-73
2021/04/06 07:28:41;;;;;;;1.55;0.70;;;19.40;32.50;;;;;;5076086;28;20029;-74
2021/04/06 07:31:09;;;;;;;2.63;0.70;;;19.40;32.60;;;;;;5075771;28;20518;-73
2021/04/06 07:33:36;;;;;;;2.28;0.80;;;19.40;32.50;;;;;;5076109;28;20028;-73
2021/04/06 07:36:08;;;;;;;2.35;0.75;;;19.40;32.50;;;;;;5075896;28;20310;-73
2021/04/06 07:38:37;;;;;;;3.78;0.90;;;19.40;32.50;;;;;;5075662;28;20028;-74
2021/04/06 07:41:04;;;;;;;2.42;0.82;;;19.50;32.50;;;;;;5075728;28;20033;-74
2021/04/06 07:43:30;;;;;;;4.20;0.80;;;19.50;32.40;;;;;;5075639;28;20028;-74
2021/04/06 07:45:56;;;;;;;3.72;0.82;;;19.50;32.50;;;;;;5075989;28;20037;-74
2021/04/06 07:48:51;;;;;;;3.25;0.80;;;19.50;32.40;;;;;;5075473;28;20492;-74
2021/04/06 07:51:23;;;;;;;2.58;0.88;;;19.50;32.50;;;;;;5075545;28;20160;-73
2021/04/06 07:53:54;;;;;;;3.15;1.00;;;19.50;32.50;;;;;;5075628;28;20028;-73
2021/04/06 07:56:42;;;;;;;2.42;0.77;;;19.50;32.50;;;;;;5075849;28;20051;-74
2021/04/06 07:59:08;;;;;;;2.45;0.75;;;19.50;32.50;;;;;;5073943;28;20020;-73
2021/04/06 08:01:34;;;;;;;3.03;0.90;;;19.50;32.50;;;;;;5075381;28;20356;-72
2021/04/06 08:04:04;;;;;;;2.80;0.60;;;19.50;32.50;;;;;;5075451;28;20028;-72
2021/04/06 08:06:40;;;;;;;3.60;1.02;;;19.40;32.60;;;;;;5075316;28;20036;-73
2021/04/06 08:09:43;;;;;;;2.97;0.80;;;19.50;32.60;;;;;;5075503;28;20021;-73
2021/04/06 08:12:10;;;;;;;2.53;0.60;;;19.50;32.60;;;;;;5073969;28;20037;-73
2021/04/06 08:15:04;;;;;;;1.50;0.50;;;19.50;32.60;;;;;;5075203;28;20104;-73
2021/04/06 08:17:29;;;;;;;3.88;1.05;;;19.40;32.60;;;;;;5075146;28;20052;-73
2021/04/06 08:20:00;;;;;;;4.47;1.23;;;19.40;32.60;;;;;;5074902;28;20392;-72
2021/04/06 08:22:29;;;;;;;2.75;0.63;;;19.40;32.60;;;;;;5075030;28;20044;-72
2021/04/06 08:25:19;;;;;;;5.55;1.08;;;19.40;32.70;;;;;;5075048;28;20040;-74
2021/04/06 08:27:46;;;;;;;2.63;0.65;;;19.40;32.60;;;;;;5075430;28;20507;-73
2021/04/06 08:30:26;;;;;;;3.17;1.00;;;19.50;32.60;;;;;;5076859;28;20017;-73
2021/04/06 08:32:58;;;;;;;3.40;0.98;;;19.40;32.70;;;;;;5079433;28;20028;-73
2021/04/06 08:38:23;;;;;;;2.40;0.77;;;19.40;32.60;;;;;;5074817;28;20024;-73
2021/04/06 08:40:52;;;;;;;3.08;1.00;;;19.40;32.60;;;;;;5074554;28;20046;-72
2021/04/06 08:43:21;;;;;;;1.00;0.40;;;19.50;32.60;;;;;;5075281;28;20396;-73
2021/04/06 08:46:12;;;;;;;2.45;0.73;;;19.50;32.60;;;;;;5074896;28;20021;-73
2021/04/06 08:48:43;;;;;;;4.38;0.90;;;19.50;32.60;;;;;;5074444;28;20024;-73
2021/04/06 08:51:23;;;;;;;1.98;0.75;;;19.50;32.60;;;;;;5074091;28;20028;-73
2021/04/06 08:53:51;;;;;;;4.13;1.08;;;19.50;32.60;;;;;;5074055;28;20024;-73
2021/04/06 08:56:19;;;;;;;3.22;0.88;;;19.50;32.60;;;;;;5074649;28;20052;-73
2021/04/06 08:58:45;;;;;;;3.17;1.00;;;19.50;32.60;;;;;;5074440;28;20484;-73
2021/04/06 09:01:11;;;;;;;3.58;0.80;;;19.50;32.60;;;;;;5074598;28;20038;-73
2021/04/06 09:03:37;;;;;;;4.95;0.95;;;19.50;32.60;;;;;;5074275;28;20064;-72
2021/04/06 09:06:08;;;;;;;4.18;1.02;;;19.50;32.70;;;;;;5074349;28;20032;-74
2021/04/06 09:08:46;;;;;;;2.22;0.80;;;19.50;32.60;;;;;;5074241;28;20013;-74
2021/04/06 09:11:14;;;;;;;2.65;0.90;;;19.50;32.60;;;;;;5074258;28;20047;-73
2021/04/06 09:13:39;;;;;;;4.68;1.00;;;19.50;32.70;;;;;;5074026;28;20020;-73
2021/04/06 09:16:05;;;;;;;4.22;1.00;;;19.50;32.60;;;;;;5073993;28;20032;-74
2021/04/06 09:18:38;;;;;;;3.10;0.98;;;19.50;32.60;;;;;;5073791;28;20494;-74
2021/04/06 09:21:08;;;;;;;2.47;1.00;;;19.50;32.50;;;;;;5074136;28;20053;-74
2021/04/06 09:23:35;;;;;;;2.83;0.90;;;19.50;32.50;;;;;;5074585;28;20387;-74
2021/04/06 09:26:11;;;;;;;2.03;0.70;;;19.50;32.60;;;;;;5074818;28;20432;-73
2021/04/06 09:28:37;;;;;;;2.70;0.85;;;19.50;32.60;;;;;;5074321;28;20073;-74
2021/04/06 09:31:06;;;;;;;3.70;1.13;;;19.50;32.60;;;;;;5072721;28;20119;-73
2021/04/06 09:33:32;;;;;;;2.83;0.80;;;19.50;32.50;;;;;;5074398;28;20021;-73
2021/04/06 09:35:57;;;;;;;3.15;0.70;;;19.50;32.50;;;;;;5074131;28;20025;-73
2021/04/06 09:38:24;;;;;;;3.15;0.93;;;19.50;32.50;;;;;;5071763;28;20400;-73
2021/04/06 09:40:51;;;;;;;5.28;1.38;;;19.50;32.60;;;;;;5073403;28;20024;-74
2021/04/06 09:43:17;;;;;;;3.10;0.95;;;19.50;32.50;;;;;;5073117;28;20025;-73
2021/04/06 09:45:43;;;;;;;3.25;0.68;;;19.50;32.50;;;;;;5072993;28;20033;-73
2021/04/06 09:48:14;;;;;;;2.60;0.80;;;19.60;32.50;;;;;;5073132;28;20024;-73
2021/04/06 09:50:54;;;;;;;3.35;1.00;;;19.60;32.50;;;;;;5072829;28;20028;-73
2021/04/06 09:53:20;;;;;;;3.92;0.52;;;19.60;32.50;;;;;;5071695;28;20025;-72
2021/04/06 09:55:47;;;;;;;3.58;0.90;;;19.60;32.50;;;;;;5072628;28;20028;-73
2021/04/06 09:58:14;;;;;;;5.47;1.30;;;19.60;32.50;;;;;;5072515;28;20153;-73
2021/04/06 10:00:43;;;;;;;3.13;1.10;;;19.60;32.50;;;;;;5072833;28;20043;-72
2021/04/06 10:03:11;;;;;;;3.15;0.80;;;19.60;32.50;;;;;;5071546;28;20024;-72
2021/04/06 10:05:42;;;;;;;3.28;0.90;;;19.60;32.50;;;;;;5071676;28;20025;-72
2021/04/06 10:08:08;;;;;;;4.85;1.15;;;19.60;32.40;;;;;;5072910;28;20464;-73
2021/04/06 10:10:35;;;;;;;6.78;1.30;;;19.70;32.40;;;;;;5072586;28;20081;-73
2021/04/06 10:13:02;;;;;;;2.50;0.68;;;19.70;32.30;;;;;;5073101;28;20081;-74
2021/04/06 10:15:30;;;;;;;3.72;1.08;;;19.70;32.30;;;;;;5072782;28;20073;-74
2021/04/06 10:18:05;;;;;;;2.42;0.68;;;19.70;32.30;;;;;;5072950;28;20475;-72
2021/04/06 10:20:47;;;;;;;4.00;1.00;;;19.70;32.30;;;;;;5072571;28;20047;-73
2021/04/06 10:23:28;;;;;;;3.65;0.98;;;19.70;32.40;;;;;;5072776;28;20027;-74
2021/04/06 10:25:54;;;;;;;2.17;0.80;;;19.70;32.30;;;;;;5072721;28;20020;-74
2021/04/06 10:28:24;;;;;;;2.78;0.77;;;19.60;32.40;;;;;;5072729;28;20031;-74
2021/04/06 10:31:01;;;;;;;3.55;0.93;;;19.70;32.40;;;;;;5071400;28;20173;-74
2021/04/06 10:33:33;;;;;;;2.10;0.90;;;19.60;32.40;;;;;;5072936;28;20109;-72
2021/04/06 10:36:01;;;;;;;1.65;0.70;;;19.70;32.40;;;;;;5073296;28;20039;-72
2021/04/06 10:38:34;;;;;;;2.60;0.70;;;19.70;32.30;;;;;;5073123;28;20380;-72
2021/04/06 10:41:00;;;;;;;3.03;0.80;;;19.70;32.30;;;;;;5073071;28;20089;-73
2021/04/06 10:43:27;;;;;;;3.47;0.75;;;19.60;32.40;;;;;;5073143;28;20270;-73
2021/04/06 10:46:00;;;;;;;4.05;0.98;;;19.60;32.50;;;;;;5072966;28;20021;-72
2021/04/06 10:48:28;;;;;;;2.80;0.73;;;19.50;32.50;;;;;;5073234;28;20103;-73
2021/04/06 10:51:00;;;;;;;2.00;0.82;;;19.60;32.50;;;;;;5076677;28;20033;-72
2021/04/06 10:53:28;;;;;;;4.68;1.30;;;19.60;32.40;;;;;;5077018;28;20036;-74
2021/04/06 10:56:06;;;;;;;2.58;1.00;;;19.60;32.40;;;;;;5076983;28;20028;-73
2021/04/06 10:58:34;;;;;;;3.05;0.75;;;19.70;32.30;;;;;;5076932;28;20100;-73
2021/04/06 11:01:04;;;;;;;3.17;0.80;;;19.70;32.20;;;;;;5076660;28;20047;-74
2021/04/06 11:03:43;;;;;;;2.35;0.70;;;19.80;32.10;;;;;;5076552;28;20430;-72
2021/04/06 11:06:21;;;;;;;5.00;0.93;;;19.70;32.20;;;;;;5076880;28;20021;-73
2021/04/06 11:08:50;;;;;;;2.42;0.70;;;19.80;32.20;;;;;;5076798;28;20143;-74
2021/04/06 11:11:19;;;;;;;3.47;0.70;;;19.80;32.10;;;;;;5080683;28;20058;-74
2021/04/06 11:13:45;;;;;;;3.47;0.77;;;19.80;32.10;;;;;;5078890;28;20376;-72
2021/04/06 11:16:12;;;;;;;2.30;0.70;;;19.80;32.10;;;;;;5076767;28;20438;-73
2021/04/06 11:18:38;;;;;;;4.13;0.90;;;19.80;32.20;;;;;;5076790;28;20024;-74
2021/04/06 11:21:05;;;;;;;3.72;1.05;;;19.70;32.20;;;;;;5076092;28;20526;-73
2021/04/06 11:23:30;;;;;;;3.40;0.82;;;19.80;32.10;;;;;;5076156;28;20025;-75
2021/04/06 11:25:56;;;;;;;5.50;1.75;;;19.70;32.10;;;;;;5076163;28;20039;-73
2021/04/06 11:28:22;;;;;;;2.92;0.70;;;19.70;32.20;;;;;;5076381;28;20025;-73
2021/04/06 11:30:47;;;;;;;2.35;0.88;;;19.70;32.30;;;;;;5076239;28;20039;-73
2021/04/06 11:33:13;;;;;;;2.13;0.65;;;19.70;32.30;;;;;;5076223;28;20031;-73
2021/04/06 11:35:39;;;;;;;3.28;0.77;;;19.60;32.30;;;;;;5076716;28;20032;-73
2021/04/06 11:38:05;;;;;;;4.28;0.80;;;19.60;32.30;;;;;;5076389;28;20536;-74
2021/04/06 11:40:30;;;;;;;1.77;0.52;;;19.60;32.40;;;;;;5074726;28;20025;-74
2021/04/06 11:42:56;;;;;;;2.90;1.00;;;19.50;32.40;;;;;;5075895;28;20031;-73
2021/04/06 11:45:22;;;;;;;3.42;1.17;;;19.50;32.40;;;;;;5075817;28;20392;-73
2021/04/06 11:47:49;;;;;;;2.70;0.80;;;19.50;32.40;;;;;;5075885;28;20391;-74
2021/04/06 11:50:15;;;;;;;2.47;1.00;;;19.50;32.40;;;;;;5075684;28;20074;-73
2021/04/06 11:52:41;;;;;;;1.80;0.63;;;19.50;32.40;;;;;;5076008;28;20032;-73
2021/04/06 11:55:07;;;;;;;2.92;0.73;;;19.50;32.30;;;;;;5075547;28;20494;-74
2021/04/06 11:57:33;;;;;;;3.20;0.73;;;19.70;32.20;;;;;;5075621;28;20472;-73
2021/04/06 11:59:58;;;;;;;3.00;0.80;;;19.80;32.00;;;;;;5075284;28;20108;-73
2021/04/06 12:02:24;;;;;;;3.88;0.90;;;19.90;31.90;;;;;;5075434;28;20059;-74
2021/04/06 12:04:50;;;;;;;2.95;0.70;;;19.90;31.90;;;;;;5075840;28;20024;-73
2021/04/06 12:07:15;;;;;;;2.95;0.90;;;20.00;31.70;;;;;;5075394;28;20017;-73
2021/04/06 12:09:41;;;;;;;3.67;0.90;;;20.10;31.70;;;;;;5074164;28;20033;-73
2021/04/06 12:12:07;;;;;;;1.63;0.80;;;20.20;31.60;;;;;;5075213;28;20137;-73
2021/04/06 12:14:33;;;;;;;1.70;0.65;;;20.30;31.40;;;;;;5075222;28;20052;-73
2021/04/06 12:16:58;;;;;;;4.65;0.98;;;20.30;31.40;;;;;;5074080;28;20055;-73
2021/04/06 12:19:24;;;;;;;3.40;1.10;;;20.40;31.30;;;;;;5075025;28;20020;-73
2021/04/06 12:21:49;;;;;;;2.30;0.85;;;20.30;31.40;;;;;;5074944;28;20045;-73
2021/04/06 12:24:16;;;;;;;2.15;0.60;;;20.40;31.40;;;;;;5075235;28;20032;-73
2021/04/06 12:26:42;;;;;;;2.85;0.90;;;20.50;31.30;;;;;;5074991;28;20033;-74
2021/04/06 12:29:07;;;;;;;2.13;0.68;;;20.50;31.20;;;;;;5075247;28;20024;-73
2021/04/06 12:31:33;;;;;;;2.85;1.10;;;20.60;31.20;;;;;;5078508;28;20040;-74
2021/04/06 12:33:58;;;;;;;2.80;0.90;;;20.60;31.10;;;;;;5083544;28;20035;-73
2021/04/06 12:36:24;;;;;;;1.88;0.55;;;20.70;31.10;;;;;;5079675;28;20017;-73
2021/04/06 12:38:50;;;;;;;3.63;0.90;;;20.60;31.20;;;;;;5075590;28;20050;-73
2021/04/06 12:41:16;;;;;;;2.28;0.75;;;20.60;31.20;;;;;;5075802;28;20029;-72
2021/04/06 12:43:41;;;;;;;2.88;0.70;;;20.50;31.40;;;;;;5074409;28;20372;-73
2021/04/06 12:46:07;;;;;;;3.13;0.63;;;20.50;31.50;;;;;;5075067;28;20060;-73
2021/04/06 12:48:33;;;;;;;2.58;0.90;;;20.40;31.60;;;;;;5074667;28;20060;-73
2021/04/06 12:50:58;;;;;;;3.25;0.95;;;20.30;31.70;;;;;;5074743;28;20103;-73
2021/04/06 12:53:24;;;;;;;1.48;0.50;;;20.20;31.80;;;;;;5074905;28;20032;-73
2021/04/06 12:55:49;;;;;;;3.55;0.80;;;20.20;31.90;;;;;;5075022;28;20024;-73
2021/04/06 12:58:15;;;;;;;2.13;0.68;;;20.20;31.90;;;;;;5074546;28;20028;-73